Historyczne dane pomiarowe

Dodano dane terminowe – wersja testowa.

Dane z okresu 1951-2019

Wersja bazy: 1.34 [2019-03-16, lista zmian], aktualizacja planowana na 2019-04-15

Dane meteo z obszaru Polski uzyskane na podstawie danych udostępnionych przez Instytut Meteorologii i Gospodarki Wodnej – Państwowy Instytut Badawczy.

 

Wybierz Datę:    

       

TemperaturaWilgotnośćWiatrCiśnienieOpadyŚniegCzas trwania zjawisk
 Stacja t tx tn tng RH VA  wxwx mslp ppp RRR   cm mm wxwxwxwxwxwxwx
1964-01-17 -3.2 0.1-17.5- 95.5- 8.0 1.3---- 1.0-- 4---------
1964-01-18 0.1 0.8 -0.6- 91.3- 8.0 4.3---- 0.0-- 6---------
1964-01-19 -0.8 0.4 -1.9- 93.8- 8.0 4.3---- 0.4-- 6---------
1964-01-20 -1.7 0.0 -2.8- 91.5- 5.3 2.3---- 0.0-- 7---------
1964-01-21 -2.6 -1.4 -8.1- 94.5- 8.0 7.0---- 0.8-- 7---------
1964-01-22 1.7 2.7 -1.6- 88.8- 7.0 8.7---- 1.3-- 4---------
1964-01-23 -1.0 1.7 -2.6- 91.8- 6.3 6.3---- 0.0------------
1964-01-24 0.5 1.1 -3.1- 89.0- 7.0 9.0---- 0.9------------
1964-01-25 0.1 1.9 -1.9- 87.0- 5.0 8.7---- 0.0------------
1964-01-26 -2.2 -0.5 -6.1- 90.5- 3.7 7.7---- 1.4------------
1964-01-27 -4.8 1.7 -7.2- 80.5- 3.7 9.0---- 0.0-- 5---------
1964-01-28 -8.5 -4.0-13.5- 89.5- 2.3 2.0---- 0.0-- 5---------
1964-01-29 -6.4 -3.6-10.3- 87.8- 3.7 2.3---- 0.0-- 5---------
1964-01-30 -2.3 0.1 -6.6- 89.3- 5.3 5.7---- 0.0-- 5---------
1964-01-31 -0.7 1.4 -7.5- 92.5- 8.0 3.7---- 0.0-- 4---------
1964-02-01 1.1 1.7 -0.1- 93.3- 8.0 6.3---- 4.0-- 4---------
1964-02-02 1.0 2.9 0.4- 95.0- 8.0 8.0---- 2.9-- 4---------
1964-02-03 -0.4 1.3 -1.6- 84.0- 5.3 3.3---- 0.5------------
1964-02-04 1.3 2.2 -1.9- 94.0- 7.0 4.3---- 4.3------------
1964-02-05 -0.5 1.5 -2.1- 86.8- 5.7 8.7---- 1.3-- 5---------
1964-02-06 -2.5 -1.0 -5.1- 88.3- 4.3 8.0---- 0.3-- 6---------
1964-02-07 -5.3 -1.9 -9.0- 87.8- 4.0 8.0---- 1.6-- 7---------
1964-02-08 0.4 1.1 -7.7- 93.3- 8.0 6.3---- 0.0-- 8---------
1964-02-09 -4.7 1.5 -7.6- 86.5- 8.0 4.3---- 0.1-- 9---------
1964-02-10-11.1 -7.1-18.4- 89.0- 5.3 2.3---- 2.7-- 9---------
1964-02-11 -5.0 0.8-10.5- 83.5- 4.7 8.0---- 0.8-- 12---------
1964-02-12 -7.9 -5.1-15.5- 86.3- 6.0 3.7---- 1.2-- 13---------
1964-02-13-13.1 -7.5-14.0- 87.5- 5.3 9.0---- 0.1-- 16---------
1964-02-14-16.0-10.1-19.7- 86.3- 2.7 2.0---- 0.0-- 18---------
1964-02-15-21.0 -9.7-25.8- 88.0- 0.0 0.3---- 0.0-- 18---------
211.1 ms

 

Źródłem pochodzenia danych jest Instytut Meteorologii i Gospodarki Wodnej – Państwowy Instytut Badawczy. Dane Instytutu Meteorologii i Gospodarki Wodnej – Państwowego Instytutu Badawczego zostały przetworzone.

Dane źródłowe można odnaleźć na stronie https://dane.imgw.pl